createdAt,value
2018-10-16T00:00:28.166Z,99648.20
2018-10-16T00:02:03.643Z,99650.52
2018-10-16T00:03:39.204Z,99649.45
2018-10-16T00:05:15.094Z,99648.24
2018-10-16T00:06:50.680Z,99656.41
2018-10-16T00:08:26.166Z,99652.35
2018-10-16T00:10:01.692Z,99654.05
2018-10-16T00:11:37.538Z,99652.12
2018-10-16T00:13:13.106Z,99652.95
2018-10-16T00:14:48.628Z,99653.77
2018-10-16T00:16:24.173Z,99662.19
2018-10-16T00:17:59.789Z,99655.08
2018-10-16T00:19:35.342Z,99656.07
2018-10-16T00:21:10.873Z,99649.72
2018-10-16T00:22:46.460Z,99656.58
2018-10-16T00:24:22.194Z,99660.77
2018-10-16T00:25:57.721Z,99660.41
2018-10-16T00:27:33.301Z,99656.08
2018-10-16T00:29:08.879Z,99650.09
2018-10-16T00:30:44.421Z,99651.17
2018-10-16T00:32:19.942Z,99654.28
2018-10-16T00:33:55.537Z,99646.61
2018-10-16T00:35:32.245Z,99653.44
2018-10-16T00:37:07.800Z,99651.03
2018-10-16T00:38:43.342Z,99653.23
2018-10-16T00:40:18.917Z,99655.73
2018-10-16T00:41:55.679Z,99654.89
2018-10-16T00:43:31.201Z,99655.50
2018-10-16T00:45:07.900Z,99655.39
2018-10-16T00:46:44.715Z,99655.63
2018-10-16T00:48:20.242Z,99654.80
2018-10-16T00:49:55.800Z,99650.59
2018-10-16T00:51:31.267Z,99650.94
2018-10-16T00:53:06.789Z,99653.58
2018-10-16T00:54:42.369Z,99648.53
2018-10-16T00:56:18.638Z,99653.34
2018-10-16T00:57:54.277Z,99650.13
2018-10-16T00:59:29.843Z,99650.36
2018-10-16T01:01:05.781Z,99651.81
2018-10-16T01:02:42.085Z,99654.08
2018-10-16T01:04:17.617Z,99657.32
2018-10-16T01:05:53.148Z,99653.23
2018-10-16T01:07:28.705Z,99653.73
2018-10-16T01:09:08.133Z,99655.02
2018-10-16T01:10:43.654Z,99656.70
2018-10-16T01:12:19.198Z,99651.20
2018-10-16T01:13:56.502Z,99653.95
2018-10-16T01:15:32.155Z,99662.20
2018-10-16T01:17:07.686Z,99661.59
2018-10-16T01:18:43.195Z,99661.97
2018-10-16T01:20:18.740Z,99653.95
2018-10-16T01:21:54.270Z,99655.27
2018-10-16T01:23:29.840Z,99659.59
2018-10-16T01:25:06.329Z,99660.89
2018-10-16T01:26:41.910Z,99658.61
2018-10-16T01:28:17.422Z,99664.95
2018-10-16T01:29:53.315Z,99666.05
2018-10-16T01:31:28.836Z,99658.26
2018-10-16T01:33:04.334Z,99657.42
2018-10-16T01:34:39.857Z,99653.23
2018-10-16T01:36:15.313Z,99652.84
2018-10-16T01:37:50.937Z,99655.72
2018-10-16T01:39:26.485Z,99652.84
2018-10-16T01:41:01.997Z,99652.61
2018-10-16T01:42:37.718Z,99654.53
2018-10-16T01:44:13.350Z,99654.05
2018-10-16T01:45:48.865Z,99651.17
2018-10-16T01:47:24.360Z,99652.95
2018-10-16T01:48:59.893Z,99603.45
2018-10-16T01:50:35.409Z,99647.80
2018-10-16T01:52:10.909Z,99645.88
2018-10-16T01:53:46.413Z,99643.18
2018-10-16T01:55:21.964Z,99643.89
2018-10-16T01:56:57.493Z,99645.09
2018-10-16T01:58:33.069Z,99641.41
2018-10-16T02:00:09.885Z,99645.47
2018-10-16T02:01:45.469Z,99644.09
2018-10-16T02:03:21.029Z,99648.55
2018-10-16T02:04:56.598Z,99639.75
2018-10-16T02:06:32.177Z,99654.62
2018-10-16T02:08:08.645Z,99656.27
2018-10-16T02:09:44.189Z,99658.25
2018-10-16T02:11:19.753Z,99661.34
2018-10-16T02:12:55.357Z,99659.41
2018-10-16T02:14:30.935Z,99661.44
2018-10-16T02:16:06.410Z,99663.76
2018-10-16T02:17:41.932Z,99660.31
2018-10-16T02:19:17.389Z,99659.98
2018-10-16T02:20:52.948Z,99665.13
2018-10-16T02:22:28.513Z,99665.11
2018-10-16T02:24:04.042Z,99667.05
2018-10-16T02:25:39.545Z,99670.77
2018-10-16T02:27:15.212Z,99670.42
2018-10-16T02:28:50.785Z,99677.72
2018-10-16T02:30:26.307Z,99686.98
2018-10-16T02:32:01.811Z,99680.92
2018-10-16T02:33:37.435Z,99680.98
2018-10-16T02:35:12.975Z,99680.77
2018-10-16T02:36:48.536Z,99678.77
2018-10-16T02:38:24.086Z,99676.81
2018-10-16T02:39:59.595Z,99669.73
2018-10-16T02:41:35.097Z,99676.95
2018-10-16T02:43:10.619Z,99681.64
2018-10-16T02:44:46.117Z,99681.42
2018-10-16T02:46:21.652Z,99683.00
2018-10-16T02:47:57.397Z,99676.45
2018-10-16T02:49:32.952Z,99676.70
2018-10-16T02:51:08.637Z,99679.11
2018-10-16T02:52:44.133Z,99677.42
2018-10-16T02:54:19.651Z,99676.33
2018-10-16T02:55:55.201Z,99677.39
2018-10-16T02:57:30.741Z,99678.11
2018-10-16T02:59:06.299Z,99681.17
2018-10-16T03:00:41.826Z,99678.80
2018-10-16T03:02:17.378Z,99678.11
2018-10-16T03:03:52.919Z,99679.77
2018-10-16T03:05:28.521Z,99681.59
2018-10-16T03:07:03.986Z,99678.02
2018-10-16T03:08:39.498Z,99677.55
2018-10-16T03:10:15.050Z,99677.27
2018-10-16T03:11:50.596Z,99681.39
2018-10-16T03:13:26.140Z,99681.05
2018-10-16T03:15:01.644Z,99686.09
2018-10-16T03:16:37.147Z,99684.41
2018-10-16T03:18:12.636Z,99686.34
2018-10-16T03:19:48.230Z,99686.59
2018-10-16T03:21:23.734Z,99686.47
2018-10-16T03:22:59.250Z,99689.95
2018-10-16T03:24:34.791Z,99691.58
2018-10-16T03:26:10.361Z,99693.92
2018-10-16T03:27:45.876Z,99694.20
2018-10-16T03:29:21.404Z,99691.23
2018-10-16T03:30:56.892Z,99692.27
2018-10-16T03:32:32.462Z,99691.58
2018-10-16T03:34:08.669Z,99686.31
2018-10-16T03:35:44.196Z,99679.52
2018-10-16T03:37:19.752Z,99680.02
2018-10-16T03:38:55.226Z,99682.49
2018-10-16T03:40:30.797Z,99677.48
2018-10-16T03:42:06.335Z,99681.39
2018-10-16T03:43:41.853Z,99680.45
2018-10-16T03:45:17.408Z,99685.41
2018-10-16T03:46:52.962Z,99687.19
2018-10-16T03:48:28.490Z,99685.94
2018-10-16T03:50:04.327Z,99688.19
2018-10-16T03:51:40.532Z,99690.85
2018-10-16T03:53:16.076Z,99689.66
2018-10-16T03:54:51.545Z,99693.23
2018-10-16T03:56:27.590Z,99695.38
2018-10-16T03:58:03.205Z,99691.80
2018-10-16T03:59:38.705Z,99692.80
2018-10-16T04:01:14.289Z,99688.66
2018-10-16T04:02:49.845Z,99691.08
2018-10-16T04:04:25.469Z,99688.45
2018-10-16T04:06:01.131Z,99688.59
2018-10-16T04:07:36.843Z,99682.27
2018-10-16T04:09:12.376Z,99687.09
2018-10-16T04:10:47.888Z,99687.51
2018-10-16T04:12:23.443Z,99687.26
2018-10-16T04:13:59.077Z,99690.52
2018-10-16T04:15:34.609Z,99681.55
2018-10-16T04:17:10.099Z,99684.09
2018-10-16T04:18:45.600Z,99688.32
2018-10-16T04:20:21.170Z,99687.23
2018-10-16T04:21:56.646Z,99688.09
2018-10-16T04:23:32.157Z,99685.68
2018-10-16T04:25:07.977Z,99685.34
2018-10-16T04:26:43.473Z,99693.58
2018-10-16T04:28:19.021Z,99696.84
2018-10-16T04:29:54.545Z,99695.11
2018-10-16T04:31:30.493Z,99698.75
2018-10-16T04:33:06.055Z,99702.14
2018-10-16T04:34:41.749Z,99700.52
2018-10-16T04:36:17.419Z,99703.27
2018-10-16T04:37:52.918Z,99701.77
2018-10-16T04:39:28.730Z,99693.55
2018-10-16T04:41:04.409Z,99696.18
2018-10-16T04:42:40.235Z,99693.73
2018-10-16T04:44:15.776Z,99694.23
2018-10-16T04:45:51.742Z,99690.73
2018-10-16T04:47:27.243Z,99691.30
2018-10-16T04:49:02.827Z,99691.52
2018-10-16T04:50:38.536Z,99700.79
2018-10-16T04:52:14.121Z,99688.28
2018-10-16T04:53:49.949Z,99688.55
2018-10-16T04:55:25.475Z,99683.67
2018-10-16T04:57:01.178Z,99690.19
2018-10-16T04:58:36.865Z,99693.77
2018-10-16T05:00:12.364Z,99694.97
2018-10-16T05:01:47.900Z,99700.62
2018-10-16T05:03:23.444Z,99698.36
2018-10-16T05:04:58.948Z,99705.52
2018-10-16T05:06:34.431Z,99705.64
2018-10-16T05:08:09.906Z,99699.83
2018-10-16T05:09:45.383Z,99699.58
2018-10-16T05:11:20.853Z,99709.02
2018-10-16T05:12:56.390Z,99705.22
2018-10-16T05:14:31.840Z,99704.83
2018-10-16T05:16:07.545Z,99665.00
2018-10-16T05:17:43.038Z,99707.16
2018-10-16T05:19:18.621Z,99707.77
2018-10-16T05:20:54.019Z,99712.09
2018-10-16T05:22:34.569Z,99709.97
2018-10-16T05:24:11.286Z,99712.03
2018-10-16T05:25:46.820Z,99708.20
2018-10-16T05:27:22.250Z,99711.95
2018-10-16T05:28:57.745Z,99709.94
2018-10-16T05:30:33.262Z,99715.33
2018-10-16T05:32:08.807Z,99717.47
2018-10-16T05:33:44.331Z,99726.24
2018-10-16T05:35:19.826Z,99730.66
2018-10-16T05:36:55.387Z,99723.21
2018-10-16T05:38:30.814Z,99726.76
2018-10-16T05:40:06.813Z,99736.92
2018-10-16T05:41:42.262Z,99732.97
2018-10-16T05:43:17.749Z,99737.77
2018-10-16T05:44:53.193Z,99736.13
2018-10-16T05:46:28.677Z,99730.30
2018-10-16T05:48:04.300Z,99730.19
2018-10-16T05:49:39.707Z,99734.51
2018-10-16T05:51:15.178Z,99732.93
2018-10-16T05:52:50.690Z,99736.05
2018-10-16T05:54:26.229Z,99733.59
2018-10-16T05:56:03.931Z,99735.64
2018-10-16T05:57:39.474Z,99735.02
2018-10-16T05:59:14.900Z,99738.11
2018-10-16T06:00:50.391Z,99743.63
2018-10-16T06:02:25.846Z,99742.54
2018-10-16T06:04:01.342Z,99737.72
2018-10-16T06:05:36.879Z,99742.56
2018-10-16T06:07:12.393Z,99741.25
2018-10-16T06:08:47.869Z,99740.89
2018-10-16T06:10:23.313Z,99746.03
2018-10-16T06:11:58.822Z,99747.33
2018-10-16T06:13:34.332Z,99748.89
2018-10-16T06:15:10.539Z,99746.51
2018-10-16T06:16:45.997Z,99750.96
2018-10-16T06:18:21.479Z,99745.69
2018-10-16T06:19:56.970Z,99752.16
2018-10-16T06:21:32.462Z,99755.16
2018-10-16T06:23:08.018Z,99759.48
2018-10-16T06:24:43.518Z,99760.09
2018-10-16T06:26:19.004Z,99761.98
2018-10-16T06:27:54.596Z,99762.07
2018-10-16T06:29:30.295Z,99764.48
2018-10-16T06:31:05.725Z,99763.98
2018-10-16T06:32:41.353Z,99762.17
2018-10-16T06:34:16.825Z,99759.19
2018-10-16T06:35:52.318Z,99768.91
2018-10-16T06:37:27.832Z,99776.31
2018-10-16T06:39:03.406Z,99773.19
2018-10-16T06:40:39.104Z,99778.93
2018-10-16T06:42:14.497Z,99783.79
2018-10-16T06:43:50.050Z,99778.72
2018-10-16T06:45:25.494Z,99780.44
2018-10-16T06:47:00.941Z,99773.75
2018-10-16T06:48:36.763Z,99775.47
2018-10-16T06:50:12.081Z,99773.68
2018-10-16T06:51:47.559Z,99769.30
2018-10-16T06:53:23.239Z,99772.44
2018-10-16T06:54:58.514Z,99769.81
2018-10-16T06:56:33.969Z,99771.28
2018-10-16T06:58:09.426Z,99775.26
2018-10-16T06:59:45.196Z,99773.22
2018-10-16T07:01:20.708Z,99772.00
2018-10-16T07:02:56.145Z,99776.67
2018-10-16T07:04:31.712Z,99773.66
2018-10-16T07:06:07.234Z,99779.42
2018-10-16T07:07:42.710Z,99783.66
2018-10-16T07:09:18.150Z,99788.92
2018-10-16T07:10:53.668Z,99787.85
2018-10-16T07:12:29.122Z,99787.15
2018-10-16T07:14:05.484Z,99789.28
2018-10-16T07:15:40.944Z,99789.93
2018-10-16T07:17:16.421Z,99792.77
2018-10-16T07:18:51.880Z,99788.91
2018-10-16T07:20:27.353Z,99788.34
2018-10-16T07:22:05.002Z,99789.19
2018-10-16T07:23:40.531Z,99786.92
2018-10-16T07:25:15.922Z,99788.48
2018-10-16T07:26:51.401Z,99782.22
2018-10-16T07:28:26.911Z,99782.82
2018-10-16T07:30:02.463Z,99777.16
2018-10-16T07:31:37.938Z,99780.89
2018-10-16T07:33:13.393Z,99782.69
2018-10-16T07:34:48.909Z,99779.56
2018-10-16T07:36:24.340Z,99779.66
2018-10-16T07:37:59.859Z,99777.47
2018-10-16T07:39:35.340Z,99778.64
2018-10-16T07:41:10.866Z,99775.40
2018-10-16T07:42:46.322Z,99774.59
2018-10-16T07:44:21.839Z,99772.98
2018-10-16T07:45:57.409Z,99775.84
2018-10-16T07:47:32.837Z,99778.02
2018-10-16T07:49:09.012Z,99780.34
2018-10-16T07:50:44.508Z,99781.02
2018-10-16T07:52:20.012Z,99780.61
2018-10-16T07:53:55.433Z,99774.23
2018-10-16T07:55:30.889Z,99774.80
2018-10-16T07:57:06.375Z,99777.23
2018-10-16T07:58:42.090Z,99779.52
2018-10-16T08:00:17.771Z,99774.31
2018-10-16T08:01:53.225Z,99777.97
2018-10-16T08:03:28.692Z,99776.14
2018-10-16T08:05:04.226Z,99782.09
2018-10-16T08:06:39.669Z,99774.83
2018-10-16T08:08:15.156Z,99783.15
2018-10-16T08:09:50.600Z,99783.60
2018-10-16T08:11:26.131Z,99788.02
2018-10-16T08:13:01.569Z,99790.92
2018-10-16T08:14:37.812Z,99785.11
2018-10-16T08:16:13.282Z,99787.56
2018-10-16T08:17:48.745Z,99779.95
2018-10-16T08:19:24.185Z,99775.27
2018-10-16T08:20:59.637Z,99776.95
2018-10-16T08:22:35.082Z,99768.19
2018-10-16T08:24:10.582Z,99760.27
2018-10-16T08:25:46.157Z,99764.39
2018-10-16T08:27:21.736Z,99767.46
2018-10-16T08:28:57.199Z,99766.05
2018-10-16T08:30:32.726Z,99763.55
2018-10-16T08:32:08.255Z,99763.00
2018-10-16T08:33:43.720Z,99759.64
2018-10-16T08:35:19.173Z,99763.47
2018-10-16T08:36:54.722Z,99767.10
2018-10-16T08:38:42.128Z,99765.00
2018-10-16T08:40:17.896Z,99762.92
2018-10-16T08:44:09.580Z,99769.03
2018-10-16T08:45:56.460Z,99782.32
2018-10-16T08:47:43.268Z,99776.30
2018-10-16T08:49:30.039Z,99774.98
2018-10-16T08:51:42.337Z,99776.86
2018-10-16T08:53:17.768Z,99772.59
2018-10-16T08:54:53.315Z,99772.12
2018-10-16T08:56:28.781Z,99774.42
2018-10-16T08:58:05.058Z,99771.77
2018-10-16T08:59:40.535Z,99767.10
2018-10-16T09:01:15.997Z,99770.80
2018-10-16T09:02:51.465Z,99772.17
2018-10-16T09:04:26.951Z,99774.19
2018-10-16T09:06:02.358Z,99777.35
2018-10-16T09:07:37.892Z,99778.63
2018-10-16T09:09:14.797Z,99773.32
2018-10-16T09:10:50.232Z,99775.97
2018-10-16T09:12:25.790Z,99773.56
2018-10-16T09:14:01.350Z,99777.55
2018-10-16T09:15:36.677Z,99779.24
2018-10-16T09:17:12.113Z,99779.70
2018-10-16T09:18:47.604Z,99775.80
2018-10-16T09:20:23.039Z,99784.30
2018-10-16T09:21:58.533Z,99784.42
2018-10-16T09:23:34.048Z,99786.83
2018-10-16T09:25:10.298Z,99786.23
2018-10-16T09:26:45.725Z,99787.08
2018-10-16T09:28:21.262Z,99783.91
2018-10-16T09:29:56.740Z,99791.22
2018-10-16T09:31:32.227Z,99785.18
2018-10-16T09:33:07.682Z,99788.52
2018-10-16T09:34:43.161Z,99782.72
2018-10-16T09:36:18.634Z,99784.20
2018-10-16T09:37:54.365Z,99784.04
2018-10-16T09:39:29.771Z,99782.84
2018-10-16T09:41:05.384Z,99778.47
2018-10-16T09:42:40.846Z,99774.22
2018-10-16T09:44:16.314Z,99780.47
2018-10-16T09:45:51.807Z,99785.23
2018-10-16T09:47:27.253Z,99779.34
2018-10-16T09:49:02.759Z,99782.11
2018-10-16T09:50:38.291Z,99782.19
2018-10-16T09:52:13.864Z,99783.10
2018-10-16T09:53:49.302Z,99783.27
2018-10-16T09:55:24.812Z,99775.72
2018-10-16T09:57:00.255Z,99777.83
2018-10-16T09:58:35.686Z,99774.18
2018-10-16T10:00:17.144Z,99772.09
2018-10-16T10:01:55.290Z,99771.36
2018-10-16T10:03:30.726Z,99781.05
2018-10-16T10:05:06.185Z,99771.95
2018-10-16T10:06:41.976Z,99778.98
2018-10-16T10:08:17.501Z,99774.70
2018-10-16T10:09:53.081Z,99777.91
2018-10-16T10:11:28.549Z,99778.61
2018-10-16T10:13:04.134Z,99781.95
2018-10-16T10:14:39.601Z,99777.32
2018-10-16T10:16:15.146Z,99776.66
2018-10-16T10:17:50.651Z,99784.09
2018-10-16T10:19:26.208Z,99779.46
2018-10-16T10:21:01.701Z,99774.83
2018-10-16T10:22:37.161Z,99777.33
2018-10-16T10:24:12.583Z,99775.19
2018-10-16T10:25:48.047Z,99781.19
2018-10-16T10:27:23.497Z,99775.19
2018-10-16T10:28:59.250Z,99779.53
2018-10-16T10:30:34.769Z,99777.67
2018-10-16T10:32:10.271Z,99772.66
2018-10-16T10:33:45.783Z,99777.14
2018-10-16T10:35:21.267Z,99778.34
2018-10-16T10:36:56.817Z,99777.01
2018-10-16T10:38:32.282Z,99778.94
2018-10-16T10:40:07.934Z,99772.94
2018-10-16T10:41:43.497Z,99773.11
2018-10-16T10:43:19.033Z,99772.33
2018-10-16T10:44:54.602Z,99783.20
2018-10-16T10:46:30.061Z,99778.39
2018-10-16T10:48:05.685Z,99780.48
2018-10-16T10:49:41.163Z,99780.31
2018-10-16T10:51:16.927Z,99779.29
2018-10-16T10:52:52.085Z,99779.55
2018-10-16T10:54:27.777Z,99779.91
2018-10-16T10:56:03.215Z,99780.39
2018-10-16T10:57:39.107Z,99782.25
2018-10-16T10:59:14.583Z,99787.94
2018-10-16T11:00:50.062Z,99785.32
2018-10-16T11:02:25.544Z,99782.02
2018-10-16T11:04:01.108Z,99785.53
2018-10-16T11:05:36.593Z,99784.58
2018-10-16T11:07:12.151Z,99787.27
2018-10-16T11:08:47.691Z,99786.75
2018-10-16T11:10:23.122Z,99782.25
2018-10-16T11:11:58.961Z,99782.94
2018-10-16T11:13:34.411Z,99780.43
2018-10-16T11:15:09.986Z,99780.95
2018-10-16T11:16:45.445Z,99790.75
2018-10-16T11:18:20.923Z,99783.09
2018-10-16T11:19:56.396Z,99780.45
2018-10-16T11:21:31.864Z,99781.95
2018-10-16T11:23:07.353Z,99782.01
2018-10-16T11:24:42.837Z,99783.69
2018-10-16T11:26:18.282Z,99784.62
2018-10-16T11:27:53.748Z,99784.79
2018-10-16T11:29:29.215Z,99783.34
2018-10-16T11:31:05.099Z,99780.48
2018-10-16T11:32:40.843Z,99781.01
2018-10-16T11:34:16.303Z,99783.88
2018-10-16T11:35:51.768Z,99781.20
2018-10-16T11:37:27.315Z,99784.36
2018-10-16T11:39:02.951Z,99789.02
2018-10-16T11:40:38.388Z,99790.36
2018-10-16T11:42:13.846Z,99787.51
2018-10-16T11:43:49.304Z,99785.34
2018-10-16T11:45:24.795Z,99784.62
2018-10-16T11:47:00.272Z,99788.48
2018-10-16T11:48:35.750Z,99787.84
2018-10-16T11:50:12.130Z,99781.33
2018-10-16T11:51:47.534Z,99781.52
2018-10-16T11:53:23.014Z,99789.20
2018-10-16T11:54:58.581Z,99785.36
2018-10-16T11:56:34.202Z,99781.34
2018-10-16T11:58:09.737Z,99784.85
2018-10-16T11:59:46.285Z,99780.18
2018-10-16T12:01:22.503Z,99782.50
2018-10-16T12:02:58.001Z,99774.83
2018-10-16T12:04:33.717Z,99786.02
2018-10-16T12:06:09.762Z,99785.52
2018-10-16T12:07:45.189Z,99791.33
2018-10-16T12:09:20.638Z,99791.02
2018-10-16T12:10:56.616Z,99794.54
2018-10-16T12:12:32.120Z,99795.84
2018-10-16T12:14:08.108Z,99795.99
2018-10-16T12:15:43.592Z,99796.15
2018-10-16T12:17:23.402Z,99793.66
2018-10-16T12:19:13.383Z,99788.50
2018-10-16T12:20:54.272Z,99790.53
2018-10-16T12:22:29.864Z,99784.65
2018-10-16T12:24:05.863Z,99792.52
2018-10-16T12:25:41.427Z,99790.34
2018-10-16T12:27:16.915Z,99787.48
2018-10-16T12:28:52.452Z,99783.96
2018-10-16T12:30:27.926Z,99781.13
2018-10-16T12:32:03.419Z,99774.63
2018-10-16T12:33:39.099Z,99776.62
2018-10-16T12:35:14.581Z,99777.16
2018-10-16T12:36:50.029Z,99782.16
2018-10-16T12:38:25.625Z,99776.11
2018-10-16T12:40:01.351Z,99772.82
2018-10-16T12:41:36.817Z,99771.27
2018-10-16T12:43:12.394Z,99766.88
2018-10-16T12:44:47.838Z,99769.55
2018-10-16T12:46:23.389Z,99775.42
2018-10-16T12:47:59.824Z,99775.75
2018-10-16T12:49:35.373Z,99778.83
2018-10-16T12:51:11.044Z,99787.20
2018-10-16T12:52:46.523Z,99784.36
2018-10-16T12:54:22.113Z,99783.17
2018-10-16T12:55:57.702Z,99788.37
2018-10-16T12:57:33.215Z,99782.69
2018-10-16T12:59:08.897Z,99783.83
2018-10-16T13:00:44.297Z,99789.03
2018-10-16T13:02:19.798Z,99787.86
2018-10-16T13:03:55.225Z,99789.52
2018-10-16T13:05:31.535Z,99781.19
2018-10-16T13:07:39.943Z,99786.35
2018-10-16T13:09:15.480Z,99782.82
2018-10-16T13:10:51.004Z,99782.98
2018-10-16T13:12:26.510Z,99782.86
2018-10-16T13:14:01.996Z,99779.83
2018-10-16T13:15:37.491Z,99780.00
2018-10-16T13:17:12.995Z,99781.18
2018-10-16T13:18:48.475Z,99788.02
2018-10-16T13:20:23.910Z,99792.02
2018-10-16T13:21:59.448Z,99796.50
2018-10-16T13:23:34.982Z,99794.19
2018-10-16T13:25:11.976Z,99798.69
2018-10-16T13:26:47.435Z,99800.13
2018-10-16T13:28:22.929Z,99800.72
2018-10-16T13:29:58.440Z,99801.14
2018-10-16T13:31:33.912Z,99809.27
2018-10-16T13:33:09.358Z,99817.13
2018-10-16T13:34:44.849Z,99816.16
2018-10-16T13:36:20.382Z,99818.02
2018-10-16T13:37:56.101Z,99815.09
2018-10-16T13:39:31.562Z,99819.08
2018-10-16T13:41:07.084Z,99812.38
2018-10-16T13:42:42.636Z,99816.37
2018-10-16T13:44:18.203Z,99817.80
2018-10-16T13:45:53.707Z,99818.16
2018-10-16T13:47:29.088Z,99818.47
2018-10-16T13:49:04.894Z,99810.83
2018-10-16T13:50:40.569Z,99814.33
2018-10-16T13:52:16.145Z,99814.99
2018-10-16T13:53:51.716Z,99816.64
2018-10-16T13:55:27.213Z,99816.11
2018-10-16T13:57:02.652Z,99821.13
2018-10-16T13:58:38.137Z,99823.34
2018-10-16T14:00:18.206Z,99822.90
2018-10-16T14:01:53.680Z,99830.28
2018-10-16T14:03:29.113Z,99835.48
2018-10-16T14:05:04.966Z,99831.20
2018-10-16T14:06:40.855Z,99832.18
2018-10-16T14:08:16.442Z,99836.85
2018-10-16T14:09:51.836Z,99839.88
2018-10-16T14:11:27.310Z,99847.85
2018-10-16T14:13:02.780Z,99848.87
2018-10-16T14:14:38.290Z,99843.55
2018-10-16T14:16:13.905Z,99851.61
2018-10-16T14:17:49.329Z,99848.51
2018-10-16T14:19:24.775Z,99841.87
2018-10-16T14:21:00.243Z,99843.38
2018-10-16T14:22:36.344Z,99851.44
2018-10-16T14:24:11.863Z,99861.01
2018-10-16T14:25:47.328Z,99858.79
2018-10-16T14:27:22.798Z,99860.30
2018-10-16T14:28:58.306Z,99859.31
2018-10-16T14:30:33.749Z,99858.24
2018-10-16T14:32:09.281Z,99860.86
2018-10-16T14:33:44.714Z,99856.35
2018-10-16T14:35:20.147Z,99856.66
2018-10-16T14:36:55.995Z,99862.21
2018-10-16T14:38:31.467Z,99858.13
2018-10-16T14:40:08.236Z,99854.63
2018-10-16T14:41:43.683Z,99855.39
2018-10-16T14:43:19.146Z,99853.09
2018-10-16T14:44:54.655Z,99856.49
2018-10-16T14:46:30.192Z,99859.06
2018-10-16T14:48:05.834Z,99856.41
2018-10-16T14:49:47.883Z,99855.08
2018-10-16T14:51:23.369Z,99860.02
2018-10-16T14:52:58.859Z,99862.73
2018-10-16T14:54:34.336Z,99866.98
2018-10-16T14:56:09.916Z,99861.20
2018-10-16T14:57:45.524Z,99866.63
2018-10-16T14:59:20.902Z,99865.86
2018-10-16T15:00:56.412Z,99864.15
2018-10-16T15:02:31.892Z,99862.45
2018-10-16T15:04:07.400Z,99863.56
2018-10-16T15:05:43.363Z,99861.86
2018-10-16T15:07:18.979Z,99864.30
2018-10-16T15:08:54.459Z,99871.58
2018-10-16T15:10:30.008Z,99863.20
2018-10-16T15:12:05.548Z,99864.15
2018-10-16T15:13:41.035Z,99863.47
2018-10-16T15:15:16.508Z,99865.27
2018-10-16T15:16:51.928Z,99858.61
2018-10-16T15:18:27.341Z,99866.83
2018-10-16T15:20:02.846Z,99867.98
2018-10-16T15:21:38.379Z,99865.66
2018-10-16T15:23:13.921Z,99871.29
2018-10-16T15:24:49.381Z,99867.41
2018-10-16T15:26:24.847Z,99868.13
2018-10-16T15:28:00.376Z,99876.48
2018-10-16T15:29:35.755Z,99864.84
2018-10-16T15:31:11.258Z,99872.10
2018-10-16T15:32:46.977Z,99872.20
2018-10-16T15:34:22.459Z,99868.38
2018-10-16T15:35:57.974Z,99871.22
2018-10-16T15:37:33.432Z,99878.17
2018-10-16T15:39:10.046Z,99876.29
2018-10-16T15:40:45.661Z,99880.47
2018-10-16T15:42:21.186Z,99882.33
2018-10-16T15:43:56.821Z,99888.81
2018-10-16T15:45:32.265Z,99887.02
2018-10-16T15:47:07.987Z,99887.37
2018-10-16T15:48:46.476Z,99888.88
2018-10-16T15:50:22.669Z,99887.94
2018-10-16T15:51:58.153Z,99888.84
2018-10-16T15:53:33.661Z,99883.72
2018-10-16T15:55:10.437Z,99885.53
2018-10-16T15:56:46.049Z,99885.63
2018-10-16T15:58:21.542Z,99882.45
2018-10-16T15:59:56.993Z,99884.98
2018-10-16T16:01:32.460Z,99881.15
2018-10-16T16:03:07.939Z,99890.70
2018-10-16T16:04:43.390Z,99887.06
2018-10-16T16:06:18.918Z,99890.05
2018-10-16T16:07:54.589Z,99842.04
2018-10-16T16:09:30.027Z,99894.60
2018-10-16T16:11:05.502Z,99891.42
2018-10-16T16:12:41.296Z,99892.46
2018-10-16T16:14:16.687Z,99893.06
2018-10-16T16:15:52.208Z,99893.22
2018-10-16T16:17:27.684Z,99903.30
2018-10-16T16:19:03.550Z,99899.68
2018-10-16T16:20:39.003Z,99910.66
2018-10-16T16:22:14.571Z,99904.91
2018-10-16T16:23:50.121Z,99905.34
2018-10-16T16:25:25.618Z,99912.40
2018-10-16T16:27:01.113Z,99910.35
2018-10-16T16:28:36.641Z,99913.65
2018-10-16T16:30:14.499Z,99912.19
2018-10-16T16:31:50.021Z,99916.89
2018-10-16T16:33:25.490Z,99909.36
2018-10-16T16:35:01.017Z,99913.75
2018-10-16T16:36:36.551Z,99909.28
2018-10-16T16:38:12.070Z,99909.80
2018-10-16T16:39:47.534Z,99907.90
2018-10-16T16:41:23.102Z,99907.75
2018-10-16T16:42:58.634Z,99914.08
2018-10-16T16:44:34.232Z,99916.42
2018-10-16T16:46:09.809Z,99915.61
2018-10-16T16:47:45.246Z,99913.77
2018-10-16T16:49:20.794Z,99919.30
2018-10-16T16:50:56.368Z,99916.52
2018-10-16T16:52:31.853Z,99920.21
2018-10-16T16:55:55.933Z,99919.58
2018-10-16T16:57:31.416Z,99910.94
2018-10-16T16:59:06.973Z,99921.34
2018-10-16T17:00:42.431Z,99925.23
2018-10-16T17:02:17.896Z,99924.19
2018-10-16T17:03:53.443Z,99937.17
2018-10-16T17:05:28.927Z,99932.35
2018-10-16T17:07:04.476Z,99930.48
2018-10-16T17:08:40.064Z,99928.10
2018-10-16T17:10:15.658Z,99927.98
2018-10-16T17:11:51.141Z,99934.47
2018-10-16T17:13:26.622Z,99938.50
2018-10-16T17:15:02.145Z,99937.14
2018-10-16T17:16:37.758Z,99940.55
2018-10-16T17:18:13.320Z,99941.52
2018-10-16T17:19:48.741Z,99945.50
2018-10-16T17:21:24.334Z,99940.53
2018-10-16T17:22:59.834Z,99943.55
2018-10-16T17:24:35.502Z,99939.20
2018-10-16T17:26:11.391Z,99939.19
2018-10-16T17:27:46.538Z,99941.52
2018-10-16T17:29:22.087Z,99948.23
2018-10-16T17:30:57.606Z,99944.24
2018-10-16T17:32:33.236Z,99944.02
2018-10-16T17:34:09.063Z,99945.65
2018-10-16T17:35:44.542Z,99943.94
2018-10-16T17:37:20.720Z,99948.95
2018-10-16T17:38:56.320Z,99948.59
2018-10-16T17:40:31.901Z,99947.67
2018-10-16T17:42:07.447Z,99954.88
2018-10-16T17:43:43.062Z,99947.55
2018-10-16T17:45:18.924Z,99947.19
2018-10-16T17:46:54.599Z,99951.13
2018-10-16T17:48:30.115Z,99949.63
2018-10-16T17:50:07.587Z,99951.91
2018-10-16T17:51:43.092Z,99950.98
2018-10-16T17:53:18.652Z,99956.28
2018-10-16T17:54:54.376Z,99956.54
2018-10-16T17:56:29.866Z,99957.35
2018-10-16T17:58:05.698Z,99958.45
2018-10-16T17:59:41.183Z,99962.14
2018-10-16T18:01:16.701Z,99965.16
2018-10-16T18:02:52.624Z,99967.44
2018-10-16T18:04:28.408Z,99967.59
2018-10-16T18:06:03.967Z,99965.89
2018-10-16T18:07:39.417Z,99921.72
2018-10-16T18:09:14.968Z,99966.11
2018-10-16T18:10:50.504Z,99965.55
2018-10-16T18:12:26.064Z,99960.63
2018-10-16T18:14:01.663Z,99964.23
2018-10-16T18:15:37.165Z,99966.00
2018-10-16T18:17:12.708Z,99964.59
2018-10-16T18:18:48.226Z,99966.98
2018-10-16T18:20:23.708Z,99965.77
2018-10-16T18:21:59.255Z,99965.92
2018-10-16T18:23:34.785Z,99967.24
2018-10-16T18:25:10.869Z,99965.30
2018-10-16T18:26:46.447Z,99966.59
2018-10-16T18:28:21.941Z,99967.77
2018-10-16T18:29:57.563Z,99972.14
2018-10-16T18:31:33.025Z,99964.45
2018-10-16T18:33:08.673Z,99964.84
2018-10-16T18:34:44.387Z,99969.84
2018-10-16T18:36:19.915Z,99967.47
2018-10-16T18:37:55.511Z,99971.96
2018-10-16T18:39:31.131Z,99974.09
2018-10-16T18:41:06.682Z,99972.11
2018-10-16T18:42:42.446Z,99965.27
2018-10-16T18:44:18.126Z,99967.21
2018-10-16T18:45:54.893Z,99965.33
2018-10-16T18:47:31.505Z,99977.89
2018-10-16T18:49:07.135Z,99970.74